Detall de PIREP

Printer-friendly versionPDF version

[2010/12/04 16:31:00]
Flight IATA:CT2104
Pilot Number:042
Company ICAO:CAT
Aircraft Type:B738/F
PAX:120
Departing Airport: LEVC
Destination Airport: LEBB
Alternate Airport:LEMD
Online: VATSIM
Route:CENTA A33 PRADO CJN RBO UN867 DGO B190 CEGAM
Flight Level:FL310
No Slew and time accel
No pause
Crash detect
Detect pilot in Cockpit between each 30 and 45 minutes
16:31 Zero fuel Weight: 118701 Lbs, Fuel Weight: 46020 Lbs
16:31 VATSIM:LEVC 041600Z 15004KT CAVOK 10/01 Q1021 NOSIG
16:31 VATSIM:LEBB 041600Z 16014G25KT 130V200 CAVOK 08/M02 Q1014 WS ALL RWY NOSIG
16:31 VOICE CATALONIAN
16:35 Parking Brakes off
16:47 Take-off
16:47 Take off Weight: 163491 Lbs
16:47 Wind: 153 @ 004 Knots Heading: 117
16:47 POS N39 29 08 W000 28 21
16:47 Gear Up: 170 Knots
16:47 Flaps:4 at 170 Knots
16:47 Flaps:3 at 175 Knots
16:48 Flaps:2 at 162 Knots
16:49 Flaps:1 at 215 Knots
16:49 Flaps:0 at 230 Knots
17:02 Wind:272@034 Knots Heading: 297 Ground Speed: 367 Knots Altitude 20301 ft
17:08 TOC
17:08 Fuel Weight: 40832 Lb
17:17 Wind:285@065 Knots Heading: 308 Ground Speed: 386 Knots Altitude 31128 ft
17:31 TOD
17:31 Fuel Weight: 38462 Lb
17:32 Wind:277@071 Knots Heading: 359 Ground Speed: 399 Knots Altitude 30570 ft
17:41 Flaps:1 at 216 Knots
17:41 Flaps:2 at 213 Knots
17:47 Wind:189@011 Knots Heading: 299 Ground Speed: 219 Knots Altitude 5351 ft
17:47 Flaps:3 at 180 Knots
17:49 Flaps:4 at 164 Knots
17:52 Gear Down: 194 Knots
17:52 Flaps:5 at 209 Knots
17:53 Gear Up: 178 Knots
17:54 Flaps:4 at 181 Knots
18:02 Wind:164@013 Knots Heading: 337 Ground Speed: 205 Knots Altitude 3612 ft
18:07 Flaps:5 at 169 Knots
18:15 Gear Down: 148 Knots
18:15 Flaps:6 at 147 Knots
18:15 Flaps:7 at 146 Knots
18:15 Flaps:8 at 146 Knots
18:17 Wind:172@012 Knots Heading: 122 Ground Speed: 131 Knots Altitude 2004 ft
18:19 TouchDown:Rate -352 ft/min Speed: 132 Knots
18:19 VATSIM:LEBB 041800Z 18010KT 120V210 CAVOK 08/M02 Q1014 WS ALL RWY NOSIG
18:19 Land
18:19 Wind:175@023 Knots
18:19 Heading: 118
18:19 Flight Duration: 01:32
18:19 Landing Weight: 152375 Lbs
18:19 POS N43 18 06 W002 54 44
18:20 Parking brakes on
18:20 Block to Block Duration: 01:45
18:20 Final Fuel: 33522 Lbls
18:20 Spent Fuel: 12497 Lbls
18:20 Flight Length: 360 NM
18:20 TOD Land Length: 178 NM

Exportar CSV

Powered by Drupal - Modified by Danger4k